createdAt,value
2022-11-30T00:00:55.583Z,5.20
2022-11-30T00:04:57.454Z,5.20
2022-11-30T00:08:59.430Z,5.20
2022-11-30T00:13:01.459Z,5.20
2022-11-30T00:17:03.356Z,5.20
2022-11-30T00:21:08.924Z,5.20
2022-11-30T00:25:10.903Z,5.30
2022-11-30T00:29:13.138Z,5.30
2022-11-30T00:33:15.091Z,5.30
2022-11-30T00:37:17.079Z,5.20
2022-11-30T00:41:19.468Z,5.20
2022-11-30T00:45:21.345Z,5.20
2022-11-30T00:49:23.289Z,5.20
2022-11-30T00:53:25.077Z,5.20
2022-11-30T00:57:26.912Z,5.20
2022-11-30T01:01:28.819Z,5.20
2022-11-30T01:05:32.239Z,5.20
2022-11-30T01:09:34.170Z,5.20
2022-11-30T01:13:36.030Z,5.20
2022-11-30T01:17:37.913Z,5.30
2022-11-30T01:21:39.896Z,5.30
2022-11-30T01:25:41.840Z,5.30
2022-11-30T01:29:43.727Z,5.30
2022-11-30T01:33:55.140Z,5.30
2022-11-30T01:37:57.038Z,5.20
2022-11-30T01:41:59.121Z,5.20
2022-11-30T01:46:01.796Z,5.20
2022-11-30T01:50:11.214Z,5.20
2022-11-30T01:54:16.431Z,5.20
2022-11-30T01:58:36.683Z,5.20
2022-11-30T02:03:21.105Z,5.20
2022-11-30T02:07:23.107Z,5.20
2022-11-30T02:11:25.109Z,5.20
2022-11-30T02:15:29.784Z,5.20
2022-11-30T02:19:57.367Z,5.10
2022-11-30T02:24:12.346Z,5.20
2022-11-30T02:28:51.492Z,5.10
2022-11-30T02:33:20.809Z,5.10
2022-11-30T02:37:22.786Z,5.00
2022-11-30T02:41:24.609Z,5.00
2022-11-30T02:45:56.352Z,5.00
2022-11-30T02:50:18.997Z,5.00
2022-11-30T02:54:20.778Z,5.00
2022-11-30T02:58:22.825Z,4.90
2022-11-30T03:02:31.170Z,4.90
2022-11-30T03:06:40.064Z,4.90
2022-11-30T03:10:41.870Z,4.90
2022-11-30T03:14:50.144Z,4.80
2022-11-30T03:18:58.059Z,4.80
2022-11-30T03:23:03.184Z,4.70
2022-11-30T03:27:05.039Z,4.60
2022-11-30T03:31:06.972Z,4.60
2022-11-30T03:35:09.151Z,4.50
2022-11-30T03:39:11.156Z,4.40
2022-11-30T03:43:12.978Z,4.30
2022-11-30T03:47:14.922Z,4.20
2022-11-30T03:51:16.855Z,4.20
2022-11-30T03:55:18.859Z,4.20
2022-11-30T03:59:20.700Z,4.20
2022-11-30T04:03:25.324Z,4.10
2022-11-30T04:07:27.351Z,4.10
2022-11-30T04:11:29.447Z,4.00
2022-11-30T04:15:31.301Z,4.00
2022-11-30T04:19:33.118Z,3.90
2022-11-30T04:23:38.389Z,3.90
2022-11-30T04:27:40.241Z,3.80
2022-11-30T04:31:42.185Z,3.80
2022-11-30T04:35:48.998Z,3.70
2022-11-30T04:39:50.896Z,3.70
2022-11-30T04:43:52.747Z,3.60
2022-11-30T04:47:54.649Z,3.60
2022-11-30T04:51:58.772Z,3.60
2022-11-30T04:56:06.853Z,3.50
2022-11-30T05:00:10.412Z,3.50
2022-11-30T05:04:12.357Z,3.50
2022-11-30T05:08:14.350Z,3.50
2022-11-30T05:12:16.298Z,3.60
2022-11-30T05:16:26.985Z,3.60
2022-11-30T05:42:40.557Z,3.50
2022-11-30T05:47:01.381Z,3.50
2022-11-30T05:51:23.502Z,3.50
2022-11-30T05:56:16.608Z,3.50
2022-11-30T06:00:32.121Z,3.50
2022-11-30T06:04:49.706Z,3.40
2022-11-30T06:14:26.006Z,3.50
2022-11-30T06:18:30.586Z,3.50
2022-11-30T06:24:01.290Z,3.50
2022-11-30T06:28:32.792Z,3.50
2022-11-30T06:32:34.944Z,3.40
2022-11-30T06:36:40.143Z,3.30
2022-11-30T06:41:34.573Z,3.20
2022-11-30T06:45:45.237Z,3.20
2022-11-30T06:49:47.631Z,3.10
2022-11-30T06:53:49.824Z,3.10
2022-11-30T06:57:54.702Z,3.10
2022-11-30T07:02:31.189Z,3.00
2022-11-30T07:06:35.754Z,3.00
2022-11-30T07:10:42.361Z,3.00
2022-11-30T07:15:33.592Z,3.00
2022-11-30T07:19:22.926Z,3.00
2022-11-30T07:24:15.874Z,3.00
2022-11-30T07:50:49.059Z,3.70
2022-11-30T07:59:59.294Z,4.10
2022-11-30T08:04:07.153Z,4.20
2022-11-30T08:08:20.913Z,4.30
2022-11-30T08:13:37.173Z,4.50
2022-11-30T08:17:44.857Z,4.60
2022-11-30T08:22:04.327Z,4.80
2022-11-30T08:26:59.462Z,5.00
2022-11-30T08:31:09.123Z,4.90
2022-11-30T08:35:12.089Z,5.00
2022-11-30T08:39:15.672Z,4.90
2022-11-30T08:43:23.638Z,5.10
2022-11-30T08:48:09.850Z,5.10
2022-11-30T08:54:23.027Z,5.20
2022-11-30T08:58:29.108Z,5.10
2022-11-30T09:24:36.472Z,5.00
2022-11-30T09:28:47.046Z,5.00
2022-11-30T09:32:49.327Z,5.00
2022-11-30T09:36:53.779Z,5.10
2022-11-30T09:42:11.391Z,5.20
2022-11-30T09:47:31.871Z,5.30
2022-11-30T09:52:26.430Z,5.40
2022-11-30T09:56:35.341Z,5.40
2022-11-30T10:28:24.251Z,5.70
2022-11-30T10:39:45.590Z,5.70
2022-11-30T20:55:45.899Z,3.30
2022-11-30T20:59:56.425Z,3.30
2022-11-30T21:04:19.127Z,3.40
2022-11-30T21:16:09.352Z,3.30
2022-11-30T21:42:56.048Z,3.20
